Time;durP1;ratioP1;P1;durP2;ratioP2;P2;SDS_P1;SDS_P2;PMS_P1;PMS_P2;Temp;Humidity;BMP_temperature;BMP_pressure;BME280_temperature;BME280_humidity;BME280_pressure;Samples;Min_cycle;Max_cycle;Signal;HPM_P1;HPM_P2
2022/07/21 00:04:18;;;;;;;4.72;4.32;;;22.80;99.90;;;;;;13134126;22;20191;-89
2022/07/21 00:09:20;;;;;;;4.35;3.97;;;;;;;;;;13133507;22;20188;-89
2022/07/21 00:14:23;;;;;;;4.80;4.10;;;22.80;99.90;;;;;;13115798;22;20164;-89
2022/07/21 00:19:25;;;;;;;5.35;4.85;;;22.80;99.90;;;;;;13115975;22;20508;-89
2022/07/21 00:24:28;;;;;;;4.53;4.13;;;22.80;99.90;;;;;;13116825;22;20245;-89
2022/07/21 00:29:31;;;;;;;4.32;3.92;;;22.70;99.90;;;;;;13091808;22;20196;-90
2022/07/21 00:34:34;;;;;;;4.22;3.83;;;22.80;99.90;;;;;;13119992;22;20160;-89
2022/07/21 00:39:37;;;;;;;4.50;4.10;;;22.80;99.90;;;;;;13091483;22;20196;-89
2022/07/21 00:44:39;;;;;;;4.85;4.45;;;22.70;99.90;;;;;;13137486;22;20165;-89
2022/07/21 00:49:44;;;;;;;5.20;4.18;;;22.70;99.90;;;;;;13119339;22;20184;-89
2022/07/21 00:54:47;;;;;;;4.32;4.03;;;22.70;99.90;;;;;;13119417;22;20160;-89
2022/07/21 00:59:50;;;;;;;5.03;4.57;;;22.70;99.90;;;;;;13137534;22;20164;-89
2022/07/21 01:04:53;;;;;;;4.85;4.38;;;22.80;99.90;;;;;;13065241;22;20176;-89
2022/07/21 01:09:56;;;;;;;3.97;3.67;;;22.70;99.90;;;;;;13091726;22;20160;-89
2022/07/21 01:14:59;;;;;;;3.88;3.58;;;22.70;99.90;;;;;;13118949;22;20165;-89
2022/07/21 01:20:05;;;;;;;4.85;4.10;;;22.80;99.90;;;;;;13091863;22;20161;-89
2022/07/21 01:25:08;;;;;;;4.32;3.85;;;22.70;99.90;;;;;;13137267;22;20164;-89
2022/07/21 01:30:12;;;;;;;4.82;4.43;;;22.70;99.90;;;;;;13091699;22;20214;-90
2022/07/21 01:35:15;;;;;;;4.13;3.83;;;22.70;99.90;;;;;;13091506;22;20187;-89
2022/07/21 01:45:40;;;;;;;4.93;4.50;;;22.70;99.90;;;;;;13136585;22;20210;-89
2022/07/21 01:50:43;;;;;;;4.38;4.05;;;22.60;99.90;;;;;;13118251;22;20161;-89
2022/07/21 01:55:45;;;;;;;5.25;4.05;;;22.60;99.90;;;;;;13118303;22;20168;-89
2022/07/21 02:00:48;;;;;;;4.70;4.30;;;22.60;99.90;;;;;;13090898;22;20165;-89
2022/07/21 02:05:51;;;;;;;4.68;4.28;;;22.60;99.90;;;;;;13117874;22;20519;-89
2022/07/21 02:10:53;;;;;;;5.43;4.40;;;22.60;99.90;;;;;;13106814;22;20546;-89
2022/07/21 02:15:56;;;;;;;4.65;4.20;;;22.60;99.90;;;;;;13117609;22;20676;-89
2022/07/21 02:20:59;;;;;;;4.93;4.45;;;22.60;99.90;;;;;;13117772;22;20164;-89
2022/07/21 02:26:02;;;;;;;4.38;3.97;;;22.60;99.90;;;;;;13117384;22;20221;-89
2022/07/21 02:31:05;;;;;;;4.95;4.55;;;22.60;99.90;;;;;;13117484;22;20161;-89
2022/07/21 02:36:08;;;;;;;4.30;3.90;;;22.60;99.90;;;;;;13117504;22;20190;-89
2022/07/21 02:41:11;;;;;;;4.93;4.53;;;22.60;99.90;;;;;;13117265;22;20192;-90
2022/07/21 02:46:13;;;;;;;4.40;4.00;;;22.60;99.90;;;;;;13089948;22;20229;-89
2022/07/21 02:51:15;;;;;;;5.03;4.53;;;22.60;99.90;;;;;;13062817;22;20584;-89
2022/07/21 02:56:18;;;;;;;4.53;4.13;;;22.50;99.90;;;;;;13117678;22;20504;-89
2022/07/21 03:01:21;;;;;;;4.78;4.32;;;22.50;99.90;;;;;;13088634;22;20176;-89
2022/07/21 03:06:24;;;;;;;4.28;3.88;;;22.60;99.90;;;;;;13090154;22;20210;-89
2022/07/21 03:11:26;;;;;;;4.65;4.25;;;22.60;99.90;;;;;;13116688;22;20164;-89
2022/07/21 03:16:29;;;;;;;4.63;4.22;;;22.60;99.90;;;;;;13116775;22;20166;-90
2022/07/21 03:21:32;;;;;;;5.00;4.60;;;22.60;99.90;;;;;;13116951;22;20168;-89
2022/07/21 03:26:38;;;;;;;4.60;4.20;;;22.60;99.90;;;;;;13088758;22;20565;-89
2022/07/21 03:31:41;;;;;;;4.18;3.80;;;22.70;99.90;;;;;;13134792;22;20161;-89
2022/07/21 03:36:43;;;;;;;4.70;4.28;;;22.70;99.90;;;;;;13088213;22;20176;-89
2022/07/21 03:41:46;;;;;;;4.28;3.88;;;22.70;99.90;;;;;;13129709;22;20169;-89
2022/07/21 03:46:49;;;;;;;4.57;4.25;;;22.70;99.90;;;;;;13116520;22;20238;-89
2022/07/21 03:51:51;;;;;;;4.68;4.10;;;22.70;99.90;;;;;;13089187;22;20160;-90
2022/07/21 03:56:54;;;;;;;5.45;4.75;;;22.70;99.90;;;;;;13088782;22;20165;-89
2022/07/21 04:01:56;;;;;;;4.68;4.28;;;22.70;99.90;;;;;;13116861;22;20217;-90
2022/07/21 04:06:59;;;;;;;5.07;4.57;;;22.70;99.90;;;;;;13087084;22;20196;-90
2022/07/21 04:12:01;;;;;;;4.78;4.30;;;22.70;99.90;;;;;;13115999;22;20165;-89
2022/07/21 04:17:04;;;;;;;4.90;4.30;;;22.70;99.90;;;;;;13115997;22;20165;-89
2022/07/21 04:22:06;;;;;;;5.10;4.60;;;22.80;99.90;;;;;;13088462;22;20168;-90
2022/07/21 04:27:09;;;;;;;5.00;4.60;;;22.80;99.90;;;;;;13115702;22;20180;-90
2022/07/21 04:32:12;;;;;;;4.38;3.97;;;22.80;99.90;;;;;;13115712;22;20541;-89
2022/07/21 04:37:15;;;;;;;5.10;4.40;;;22.80;99.90;;;;;;13088426;22;20192;-89
2022/07/21 04:42:18;;;;;;;4.57;4.05;;;23.00;99.90;;;;;;13088284;22;20168;-89
2022/07/21 04:47:21;;;;;;;4.63;3.90;;;22.90;99.90;;;;;;13061967;22;20196;-89
2022/07/21 04:52:24;;;;;;;5.30;4.80;;;22.90;99.90;;;;;;13107517;22;20160;-89
2022/07/21 04:57:26;;;;;;;6.07;4.28;;;22.90;99.90;;;;;;13115378;22;20194;-90
2022/07/21 05:02:29;;;;;;;4.45;4.05;;;22.90;99.90;;;;;;13115224;22;20164;-89
2022/07/21 05:07:31;;;;;;;4.88;4.38;;;22.90;99.90;;;;;;13115014;22;20207;-89
2022/07/21 05:12:34;;;;;;;8.10;4.50;;;22.80;99.90;;;;;;13088779;22;20176;-89
2022/07/21 05:17:37;;;;;;;10.27;4.68;;;22.80;99.90;;;;;;13090760;22;20176;-89
2022/07/21 05:22:40;;;;;;;4.32;3.92;;;22.70;99.90;;;;;;13118935;22;20238;-89
2022/07/21 05:27:42;;;;;;;4.90;4.40;;;22.90;99.90;;;;;;13118640;22;20568;-89
2022/07/21 05:32:45;;;;;;;4.53;4.15;;;22.90;99.90;;;;;;13118714;22;20160;-90
2022/07/21 05:37:49;;;;;;;9.27;4.65;;;22.90;99.90;;;;;;13090548;22;20249;-89
2022/07/21 05:42:52;;;;;;;7.25;4.38;;;22.90;99.90;;;;;;13118457;22;20172;-89
2022/07/21 05:47:54;;;;;;;12.82;4.82;;;23.00;99.90;;;;;;13118365;22;20184;-89
2022/07/21 05:52:57;;;;;;;5.90;3.50;;;23.00;99.90;;;;;;13118478;22;20160;-90
2022/07/21 05:57:59;;;;;;;4.15;3.78;;;23.10;99.90;;;;;;13118355;22;20482;-90
2022/07/21 06:03:02;;;;;;;5.03;4.53;;;23.20;99.90;;;;;;13118170;22;20168;-89
2022/07/21 06:08:11;;;;;;;6.80;4.20;;;23.30;99.90;;;;;;13117755;22;20184;-90
2022/07/21 06:13:14;;;;;;;6.13;4.57;;;23.40;99.90;;;;;;13117667;22;20164;-89
2022/07/21 06:18:17;;;;;;;7.68;4.40;;;23.50;99.90;;;;;;13118135;22;20191;-90
2022/07/21 06:23:19;;;;;;;13.55;5.85;;;23.50;99.90;;;;;;13088903;22;20569;-90
2022/07/21 06:28:22;;;;;;;5.50;4.70;;;23.60;99.90;;;;;;13090165;22;20184;-89
2022/07/21 06:33:25;;;;;;;7.03;4.65;;;23.70;99.90;;;;;;13064053;22;20562;-90
2022/07/21 06:38:27;;;;;;;4.90;4.40;;;23.90;99.90;;;;;;13089444;22;20263;-89
2022/07/21 06:43:30;;;;;;;5.00;4.43;;;23.90;99.90;;;;;;13090442;22;20219;-89
2022/07/21 06:48:33;;;;;;;8.70;5.60;;;23.80;99.90;;;;;;13090231;22;20188;-89
2022/07/21 06:53:35;;;;;;;6.20;4.47;;;24.00;99.90;;;;;;13088827;22;20704;-90
2022/07/21 06:58:38;;;;;;;6.07;4.78;;;25.00;99.90;;;;;;13117601;22;20199;-90
2022/07/21 07:03:52;;;;;;;7.00;4.82;;;24.90;99.90;;;;;;13134892;22;20217;-90
2022/07/21 07:08:55;;;;;;;5.38;4.32;;;25.00;99.90;;;;;;13116972;22;20250;-90
2022/07/21 07:13:58;;;;;;;5.53;5.00;;;25.20;99.90;;;;;;13117224;22;20540;-89
2022/07/21 07:19:15;;;;;;;5.78;4.78;;;25.30;99.90;;;;;;13066464;22;20176;-90
2022/07/21 07:24:18;;;;;;;7.05;5.32;;;25.20;99.90;;;;;;13116797;22;20503;-89
2022/07/21 07:29:20;;;;;;;8.95;5.70;;;26.00;99.90;;;;;;13116330;22;20181;-89
2022/07/21 07:34:22;;;;;;;5.18;4.45;;;26.30;99.90;;;;;;13088186;22;20230;-89
2022/07/21 07:39:25;;;;;;;11.38;5.60;;;26.30;99.90;;;;;;13090356;22;20222;-90
2022/07/21 07:44:28;;;;;;;7.95;4.88;;;27.00;99.90;;;;;;13088581;22;20180;-90
2022/07/21 07:49:31;;;;;;;5.57;5.00;;;27.00;99.90;;;;;;13116829;22;20514;-89
2022/07/21 07:54:34;;;;;;;4.88;4.47;;;27.70;99.90;;;;;;13116309;22;20614;-89
2022/07/21 07:59:36;;;;;;;6.03;5.05;;;27.50;97.40;;;;;;13091010;22;20221;-90
2022/07/21 08:04:40;;;;;;;10.38;5.03;;;27.40;99.90;;;;;;13108784;22;20476;-90
2022/07/21 08:09:44;;;;;;;6.60;5.13;;;28.10;99.90;;;;;;13116768;22;20218;-90
2022/07/21 08:14:46;;;;;;;5.40;4.72;;;28.10;98.20;;;;;;13087587;22;20172;-89
2022/07/21 08:19:49;;;;;;;5.40;4.63;;;28.60;97.00;;;;;;13087589;22;20176;-90
2022/07/21 08:24:52;;;;;;;8.60;5.47;;;28.90;96.10;;;;;;13116124;22;20190;-90
2022/07/21 08:29:54;;;;;;;11.50;5.25;;;29.30;93.70;;;;;;13061806;22;20708;-89
2022/07/21 08:34:57;;;;;;;8.65;6.10;;;29.50;97.80;;;;;;13116604;22;20556;-89
2022/07/21 08:39:59;;;;;;;9.80;5.25;;;29.50;94.60;;;;;;13115615;22;20253;-89
2022/07/21 08:45:03;;;;;;;7.38;5.15;;;30.10;94.70;;;;;;13115615;22;20168;-90
2022/07/21 08:50:08;;;;;;;12.85;6.13;;;30.10;90.40;;;;;;13065553;22;20196;-90
2022/07/21 08:55:11;;;;;;;10.45;5.60;;;30.30;92.70;;;;;;13139059;22;20214;-89
2022/07/21 09:00:14;;;;;;;10.18;5.55;;;30.40;90.90;;;;;;13119512;22;20237;-89
2022/07/21 09:05:17;;;;;;;4.88;4.38;;;30.00;91.80;;;;;;13119217;22;20643;-90
2022/07/21 09:10:25;;;;;;;6.60;5.22;;;28.40;92.50;;;;;;13118970;22;20500;-90
2022/07/21 09:15:31;;;;;;;11.32;5.40;;;30.30;92.00;;;;;;13137584;22;20206;-89
2022/07/21 09:20:34;;;;;;;6.47;4.85;;;29.90;90.80;;;;;;13137027;22;20168;-89
2022/07/21 09:25:44;;;;;;;8.10;5.90;;;30.80;89.90;;;;;;13118722;22;20164;-89
2022/07/21 09:30:54;;;;;;;10.82;5.53;;;29.90;91.60;;;;;;13092030;22;20518;-89
2022/07/21 09:36:04;;;;;;;12.00;5.80;;;31.00;84.90;;;;;;13138130;22;20622;-89
2022/07/21 09:41:12;;;;;;;8.77;4.95;;;31.40;85.80;;;;;;13118299;22;20246;-90
2022/07/21 09:46:20;;;;;;;4.55;3.92;;;29.80;90.80;;;;;;13137931;22;20164;-89
2022/07/21 09:51:23;;;;;;;9.13;6.18;;;29.10;87.30;;;;;;13118711;22;20184;-88
2022/07/21 09:56:28;;;;;;;4.20;3.83;;;29.90;94.40;;;;;;13090995;22;20165;-90
2022/07/21 10:01:31;;;;;;;5.03;4.57;;;29.60;85.00;;;;;;13090197;22;20234;-89
2022/07/21 10:06:37;;;;;;;14.32;5.25;;;27.90;93.00;;;;;;13118069;22;20169;-90
2022/07/21 10:11:41;;;;;;;6.20;5.60;;;29.70;93.60;;;;;;13133236;22;20211;-90
2022/07/21 10:16:44;;;;;;;4.90;4.40;;;29.00;94.70;;;;;;13090619;22;20164;-89
2022/07/21 10:22:09;;;;;;;11.25;5.15;;;27.50;93.00;;;;;;13136472;22;20160;-89
2022/07/21 10:27:13;;;;;;;6.82;5.03;;;28.50;92.70;;;;;;13103785;22;20168;-89
2022/07/21 10:32:17;;;;;;;6.30;5.13;;;29.40;91.50;;;;;;13090534;22;20187;-90
2022/07/21 10:37:38;;;;;;;9.57;5.15;;;30.90;87.20;;;;;;13117412;22;20223;-89
2022/07/21 10:42:41;;;;;;;6.97;4.95;;;30.70;86.30;;;;;;13128693;22;20194;-90
2022/07/21 10:47:43;;;;;;;5.57;4.50;;;30.90;85.70;;;;;;13117338;22;20210;-89
2022/07/21 10:52:49;;;;;;;8.85;4.95;;;28.80;87.80;;;;;;13117340;22;20160;-89
2022/07/21 10:58:13;;;;;;;13.00;4.35;;;30.80;81.50;;;;;;13117466;22;20218;-89
2022/07/21 11:03:17;;;;;;;6.88;4.75;;;;;;;;;;13135706;22;20548;-89
2022/07/21 11:08:22;;;;;;;4.65;4.25;;;32.10;75.50;;;;;;13116577;22;20184;-89
2022/07/21 11:13:27;;;;;;;5.10;4.50;;;30.10;76.30;;;;;;13089546;22;20194;-88
2022/07/21 11:18:31;;;;;;;7.13;4.43;;;30.00;77.80;;;;;;13116956;22;20168;-90
2022/07/21 11:23:48;;;;;;;7.28;4.70;;;31.60;72.30;;;;;;13088686;22;20238;-89
2022/07/21 11:29:07;;;;;;;10.38;4.85;;;29.80;75.40;;;;;;13090392;22;20568;-89
2022/07/21 11:34:09;;;;;;;8.20;4.32;;;31.80;74.90;;;;;;13087554;22;20172;-89
2022/07/21 11:39:15;;;;;;;4.80;4.40;;;31.70;70.90;;;;;;13116685;22;20242;-88
2022/07/21 11:44:25;;;;;;;4.88;4.18;;;29.70;76.00;;;;;;13089385;22;20218;-89
2022/07/21 11:49:29;;;;;;;5.03;4.53;;;28.80;82.60;;;;;;13134218;22;20238;-89
2022/07/21 11:54:36;;;;;;;7.18;4.65;;;29.50;79.80;;;;;;13087745;22;20226;-89
2022/07/21 11:59:40;;;;;;;7.55;4.32;;;28.70;83.80;;;;;;13119392;22;20168;-89
2022/07/21 12:04:58;;;;;;;6.88;4.68;;;30.00;79.20;;;;;;13088211;22;20512;-89
2022/07/21 12:10:08;;;;;;;8.82;4.45;;;32.30;68.40;;;;;;13133645;22;20184;-89
2022/07/21 12:15:22;;;;;;;12.38;5.07;;;30.80;72.00;;;;;;13089338;22;20165;-89
2022/07/21 12:20:41;;;;;;;6.97;4.38;;;32.80;62.10;;;;;;13062361;22;20638;-89
2022/07/21 12:25:43;;;;;;;5.45;4.47;;;32.60;62.60;;;;;;13091395;22;20176;-89
2022/07/21 12:30:52;;;;;;;7.35;3.92;;;32.80;65.20;;;;;;13090878;22;20253;-89
2022/07/21 12:36:01;;;;;;;5.88;3.75;;;33.10;59.10;;;;;;13119965;22;20186;-90
2022/07/21 12:41:04;;;;;;;5.03;4.35;;;32.90;64.80;;;;;;13053510;22;20200;-89
2022/07/21 12:46:30;;;;;;;9.13;4.97;;;32.30;60.40;;;;;;13074076;22;20215;-89
2022/07/21 12:51:33;;;;;;;6.32;4.03;;;30.30;67.00;;;;;;13054915;22;20246;-89
2022/07/21 12:56:38;;;;;;;9.80;4.35;;;32.50;60.30;;;;;;13052981;22;20666;-89
2022/07/21 13:01:40;;;;;;;5.00;4.30;;;32.80;61.10;;;;;;13053559;22;20165;-89
2022/07/21 13:06:43;;;;;;;10.43;4.80;;;31.10;65.70;;;;;;13053610;22;20161;-89
2022/07/21 13:11:46;;;;;;;10.35;4.40;;;32.40;64.00;;;;;;13052636;22;20590;-89
2022/07/21 13:16:49;;;;;;;9.63;4.40;;;;;;;;;;13052208;22;20231;-89
2022/07/21 13:21:52;;;;;;;5.35;4.18;;;34.30;56.00;;;;;;13054590;22;20543;-89
2022/07/21 13:26:55;;;;;;;9.95;4.63;;;32.20;57.40;;;;;;13051869;22;20184;-89
2022/07/21 13:31:57;;;;;;;9.88;4.65;;;33.80;54.20;;;;;;13025571;22;20201;-89
2022/07/21 13:37:01;;;;;;;8.10;4.90;;;33.60;55.50;;;;;;13076018;22;20162;-90
2022/07/21 13:42:18;;;;;;;8.65;4.80;;;34.00;50.70;;;;;;13090236;22;20180;-89
2022/07/21 13:47:41;;;;;;;16.33;5.30;;;33.30;54.90;;;;;;13096398;22;20164;-89
2022/07/21 13:52:43;;;;;;;6.63;3.97;;;33.30;52.60;;;;;;13091264;22;20184;-89
2022/07/21 13:57:46;;;;;;;6.82;4.40;;;33.10;52.30;;;;;;13118181;22;20244;-89
2022/07/21 14:02:48;;;;;;;13.25;5.05;;;34.20;52.80;;;;;;13091136;22;20160;-89
2022/07/21 14:07:51;;;;;;;12.05;4.78;;;33.80;54.10;;;;;;13090797;22;20186;-89
2022/07/21 14:12:53;;;;;;;4.55;4.20;;;32.80;57.10;;;;;;13117909;22;20629;-89
2022/07/21 14:17:56;;;;;;;14.85;5.03;;;29.50;68.90;;;;;;13090813;22;20206;-91
2022/07/21 14:22:59;;;;;;;9.32;4.72;;;30.70;56.90;;;;;;13091433;22;20545;-89
2022/07/21 14:28:02;;;;;;;4.68;3.92;;;30.90;60.20;;;;;;13089213;22;20176;-89
2022/07/21 14:33:04;;;;;;;8.68;4.60;;;31.30;63.10;;;;;;13064251;22;20223;-89
2022/07/21 14:38:07;;;;;;;10.52;4.78;;;31.00;59.70;;;;;;13118567;22;20253;-90
2022/07/21 14:43:09;;;;;;;9.02;4.85;;;32.40;54.70;;;;;;13117434;22;20165;-89
2022/07/21 14:48:12;;;;;;;12.68;4.93;;;32.80;52.40;;;;;;13117526;22;20161;-89
2022/07/21 14:53:15;;;;;;;6.20;3.70;;;33.00;56.20;;;;;;13090403;22;20160;-89
2022/07/21 14:58:17;;;;;;;4.90;4.40;;;31.30;59.10;;;;;;13118384;22;20168;-89
2022/07/21 15:03:20;;;;;;;8.60;5.05;;;31.30;61.90;;;;;;13089991;22;20215;-90
2022/07/21 15:08:22;;;;;;;8.48;4.40;;;30.80;58.50;;;;;;13088867;22;20222;-89
2022/07/21 15:13:28;;;;;;;5.47;4.28;;;31.90;58.40;;;;;;13090378;22;20701;-89
2022/07/21 15:18:31;;;;;;;5.32;4.82;;;30.70;64.20;;;;;;13089852;22;20164;-89
2022/07/21 15:23:33;;;;;;;14.30;5.15;;;30.40;64.90;;;;;;13089849;22;20468;-90
2022/07/21 15:28:35;;;;;;;14.10;5.00;;;31.40;58.10;;;;;;13117507;22;20176;-90
2022/07/21 15:33:38;;;;;;;15.05;5.43;;;32.80;55.20;;;;;;13117064;22;20206;-88
2022/07/21 15:38:40;;;;;;;16.40;5.82;;;31.90;55.10;;;;;;13063682;22;20200;-89
2022/07/21 15:43:43;;;;;;;17.77;5.22;;;30.10;61.20;;;;;;13116632;22;20168;-89
2022/07/21 15:48:46;;;;;;;5.25;4.60;;;31.00;56.20;;;;;;13089154;22;20214;-89
2022/07/21 15:53:49;;;;;;;5.53;4.38;;;30.60;62.20;;;;;;13117245;22;20186;-89
2022/07/21 16:04:13;;;;;;;9.88;5.35;;;30.80;58.20;;;;;;13088105;22;20175;-90
2022/07/21 16:09:15;;;;;;;11.95;5.38;;;31.30;57.20;;;;;;13116538;22;20184;-90
2022/07/21 16:14:18;;;;;;;6.18;4.25;;;30.20;58.60;;;;;;13116270;22;20194;-89
2022/07/21 16:19:21;;;;;;;8.38;4.70;;;31.30;60.40;;;;;;13116116;22;20209;-90
2022/07/21 16:24:25;;;;;;;8.88;4.80;;;30.90;61.30;;;;;;13088463;22;20634;-89
2022/07/21 16:29:27;;;;;;;8.10;4.93;;;30.90;59.10;;;;;;13088534;22;20180;-89
2022/07/21 16:34:34;;;;;;;11.60;4.57;;;32.10;55.60;;;;;;13086654;22;20229;-90
2022/07/21 16:39:38;;;;;;;4.90;4.28;;;32.50;54.40;;;;;;13115637;22;20243;-89
2022/07/21 16:44:41;;;;;;;15.13;5.82;;;31.70;59.00;;;;;;13115227;22;20234;-89
2022/07/21 16:49:43;;;;;;;13.05;5.20;;;32.10;55.60;;;;;;13115751;22;20238;-89
2022/07/21 16:54:46;;;;;;;13.63;5.15;;;32.10;53.70;;;;;;13088457;22;20160;-89
2022/07/21 16:59:49;;;;;;;9.55;5.25;;;32.30;55.90;;;;;;13088468;22;20169;-89
2022/07/21 17:04:52;;;;;;;14.07;4.72;;;31.90;56.40;;;;;;13115954;22;20210;-90
2022/07/21 17:09:54;;;;;;;12.75;5.72;;;31.60;57.10;;;;;;13091072;22;20189;-89
2022/07/21 17:14:57;;;;;;;12.48;5.97;;;31.60;57.20;;;;;;13090716;22;20631;-89
2022/07/21 17:19:59;;;;;;;9.70;5.45;;;31.40;59.40;;;;;;13120951;22;20165;-89
2022/07/21 17:25:04;;;;;;;11.05;5.82;;;31.40;58.30;;;;;;13137553;22;20615;-89
2022/07/21 17:30:08;;;;;;;15.82;9.20;;;31.10;55.90;;;;;;13118488;22;20535;-89
2022/07/21 17:35:23;;;;;;;16.52;9.85;;;29.80;71.80;;;;;;13138528;22;20160;-89
2022/07/21 17:40:26;;;;;;;11.55;9.75;;;29.40;80.80;;;;;;13118836;22;20226;-90
2022/07/21 17:45:28;;;;;;;15.80;9.35;;;29.10;89.00;;;;;;13118581;22;20168;-90
2022/07/21 17:50:31;;;;;;;20.60;10.98;;;28.60;90.10;;;;;;13118312;22;20233;-90
2022/07/21 17:55:33;;;;;;;11.70;9.38;;;28.90;91.60;;;;;;13089907;22;20210;-89
2022/07/21 18:00:36;;;;;;;17.85;11.43;;;28.50;91.10;;;;;;13118124;22;20168;-90
2022/07/21 18:05:42;;;;;;;15.38;9.98;;;28.50;91.80;;;;;;13135936;22;20214;-90
2022/07/21 18:10:44;;;;;;;11.73;9.90;;;28.50;91.80;;;;;;13137688;22;20565;-90
2022/07/21 18:15:47;;;;;;;11.75;7.43;;;28.10;92.70;;;;;;13090842;22;20165;-89
2022/07/21 18:20:50;;;;;;;18.23;10.77;;;28.10;91.00;;;;;;13089455;22;20177;-89
2022/07/21 18:25:53;;;;;;;11.05;9.00;;;27.70;94.00;;;;;;13089279;22;20696;-90
2022/07/21 18:30:55;;;;;;;22.80;10.25;;;27.90;92.80;;;;;;13090097;22;20568;-89
2022/07/21 18:35:58;;;;;;;9.57;6.78;;;27.90;94.20;;;;;;13117636;22;20618;-89
2022/07/21 18:41:04;;;;;;;13.73;9.13;;;27.60;94.40;;;;;;13090506;22;20543;-89
2022/07/21 18:46:06;;;;;;;13.18;10.43;;;27.60;94.60;;;;;;13063394;22;20206;-89
2022/07/21 18:51:09;;;;;;;9.57;8.15;;;27.60;95.40;;;;;;13117292;22;20242;-89
2022/07/21 18:56:12;;;;;;;14.35;9.73;;;27.50;94.60;;;;;;13090487;22;20161;-89
2022/07/21 19:01:15;;;;;;;18.17;9.90;;;27.20;95.30;;;;;;13088732;22;20176;-89
2022/07/21 19:06:18;;;;;;;16.60;10.13;;;27.10;96.90;;;;;;13117223;22;20160;-89
2022/07/21 19:11:20;;;;;;;23.17;11.60;;;26.90;97.40;;;;;;13117803;22;20239;-89
2022/07/21 19:16:23;;;;;;;12.45;10.85;;;26.80;98.60;;;;;;13136879;22;20476;-90
2022/07/21 19:21:26;;;;;;;20.75;10.98;;;26.60;99.10;;;;;;13090993;22;20164;-89
2022/07/21 19:26:28;;;;;;;18.95;9.82;;;26.50;99.60;;;;;;13089686;22;20692;-90
2022/07/21 19:31:31;;;;;;;13.88;10.43;;;26.30;99.90;;;;;;13135889;22;20561;-90
2022/07/21 19:36:34;;;;;;;18.00;10.23;;;26.20;99.90;;;;;;13088277;22;20172;-88
2022/07/21 19:41:36;;;;;;;13.13;9.60;;;26.10;99.90;;;;;;13087020;22;20200;-89
2022/07/21 19:46:39;;;;;;;11.75;9.07;;;25.90;99.90;;;;;;13106611;22;20168;-89
2022/07/21 19:51:41;;;;;;;15.20;10.48;;;25.90;99.90;;;;;;13087875;22;20233;-89
2022/07/21 19:56:44;;;;;;;15.25;10.45;;;25.70;99.90;;;;;;13087655;22;20176;-89
2022/07/21 20:01:47;;;;;;;18.48;8.85;;;25.70;99.90;;;;;;13088942;22;20190;-90
2022/07/21 20:06:50;;;;;;;13.10;9.88;;;25.60;99.90;;;;;;13116277;22;20164;-89
2022/07/21 20:11:52;;;;;;;12.73;10.13;;;25.40;99.90;;;;;;13115908;22;20184;-89
2022/07/21 20:16:55;;;;;;;10.07;8.18;;;25.30;99.90;;;;;;13116390;22;20160;-90
2022/07/21 20:22:17;;;;;;;13.63;7.55;;;25.20;99.90;;;;;;13134600;22;20164;-90
2022/07/21 20:27:19;;;;;;;10.52;8.52;;;25.00;99.90;;;;;;13115591;22;20222;-90
2022/07/21 20:32:22;;;;;;;9.75;8.75;;;24.90;99.90;;;;;;13115748;22;20237;-89
2022/07/21 20:37:25;;;;;;;9.88;8.32;;;24.90;99.90;;;;;;13087210;22;20200;-90
2022/07/21 20:42:27;;;;;;;12.20;8.30;;;24.80;99.90;;;;;;13117024;22;20168;-90
2022/07/21 20:47:30;;;;;;;18.50;9.30;;;24.70;99.90;;;;;;13092792;22;20549;-90
2022/07/21 20:52:33;;;;;;;14.15;7.43;;;24.80;99.90;;;;;;13092467;22;20504;-90
2022/07/21 20:57:35;;;;;;;9.40;8.15;;;24.70;99.90;;;;;;13064853;22;20646;-89
2022/07/21 21:02:38;;;;;;;8.90;6.50;;;24.70;99.90;;;;;;13119741;22;20164;-89
2022/07/21 21:07:41;;;;;;;8.48;7.68;;;;;;;;;;13138698;22;20502;-89
2022/07/21 21:12:44;;;;;;;9.50;7.22;;;24.40;99.90;;;;;;13091279;22;20196;-89
2022/07/21 21:17:46;;;;;;;10.30;7.47;;;24.30;99.90;;;;;;13090630;22;20203;-89
2022/07/21 21:22:49;;;;;;;9.73;6.65;;;24.20;99.90;;;;;;13119292;22;20168;-90
2022/07/21 21:27:51;;;;;;;9.02;7.00;;;24.20;99.90;;;;;;13065231;22;20515;-89
2022/07/21 21:32:54;;;;;;;6.60;5.70;;;24.10;99.90;;;;;;13091781;22;20184;-90
2022/07/21 21:37:56;;;;;;;6.78;6.07;;;24.00;99.90;;;;;;13118529;22;20238;-90
2022/07/21 21:42:59;;;;;;;6.97;6.28;;;24.00;99.90;;;;;;13116166;22;20237;-90
2022/07/21 21:48:03;;;;;;;8.27;7.15;;;23.90;99.90;;;;;;13091205;22;20547;-90
2022/07/21 21:53:05;;;;;;;8.82;7.35;;;23.80;99.90;;;;;;13118496;22;20184;-90
2022/07/21 21:58:08;;;;;;;10.57;6.03;;;23.80;99.90;;;;;;13118679;22;20195;-89
2022/07/21 22:03:10;;;;;;;8.88;6.90;;;23.70;99.90;;;;;;13118975;22;20165;-90
2022/07/21 22:08:13;;;;;;;8.13;7.32;;;23.60;99.90;;;;;;13119362;22;20210;-89
2022/07/21 22:13:16;;;;;;;7.63;5.75;;;23.70;99.90;;;;;;13132069;22;20210;-89
2022/07/21 22:18:18;;;;;;;8.35;5.47;;;23.70;99.90;;;;;;13065298;22;20557;-89
2022/07/21 22:23:21;;;;;;;6.35;5.57;;;23.60;99.90;;;;;;13119062;22;20191;-89
2022/07/21 22:28:23;;;;;;;6.82;5.43;;;23.50;99.90;;;;;;13064370;22;20493;-89
2022/07/21 22:33:26;;;;;;;7.53;6.82;;;23.50;99.90;;;;;;13117993;22;20184;-90
2022/07/21 22:38:29;;;;;;;7.70;6.13;;;23.50;99.90;;;;;;13090280;22;20218;-90
2022/07/21 22:43:32;;;;;;;7.38;5.57;;;23.30;99.90;;;;;;13117433;22;20226;-90
2022/07/21 22:48:34;;;;;;;6.93;6.22;;;23.30;99.90;;;;;;13090001;22;20190;-89
2022/07/21 22:53:37;;;;;;;7.95;6.55;;;23.30;99.90;;;;;;13117343;22;20507;-89
2022/07/21 22:58:39;;;;;;;6.70;6.00;;;23.30;99.90;;;;;;13089251;22;20177;-89
2022/07/21 23:03:42;;;;;;;6.47;4.93;;;23.20;99.90;;;;;;13089751;22;20547;-90
2022/07/21 23:08:45;;;;;;;8.80;7.90;;;23.20;99.90;;;;;;13090229;22;20549;-89
2022/07/21 23:13:47;;;;;;;7.43;6.72;;;23.10;99.90;;;;;;13089746;22;20184;-89
2022/07/21 23:18:50;;;;;;;11.57;5.43;;;23.10;99.90;;;;;;13117238;22;20165;-90
2022/07/21 23:23:52;;;;;;;7.13;6.25;;;23.10;99.90;;;;;;13117033;22;20186;-89
2022/07/21 23:28:55;;;;;;;8.30;7.50;;;23.10;99.90;;;;;;13089372;22;20194;-89
2022/07/21 23:33:58;;;;;;;7.85;5.47;;;23.20;99.90;;;;;;13089594;22;20238;-89
2022/07/21 23:39:01;;;;;;;8.60;7.72;;;23.10;99.90;;;;;;13090321;22;20218;-90
2022/07/21 23:44:03;;;;;;;8.52;7.78;;;22.90;99.90;;;;;;13088042;22;20180;-89
2022/07/21 23:49:06;;;;;;;5.90;5.40;;;23.00;99.90;;;;;;13089075;22;20165;-89
2022/07/21 23:54:08;;;;;;;8.00;7.28;;;23.20;99.90;;;;;;13116446;22;20237;-89
2022/07/21 23:59:11;;;;;;;8.50;7.70;;;23.00;99.90;;;;;;13062859;22;20176;-89
